Bloomington, IN

4:53 PM EDT on August 23, 2014 (GMT -0400)
Monroe County | Change Station
CLOSE
Current Station
Airport
Location: Bloomington,
Elevation: 846 ft
Nearby Weather Stations
Active Advisory: Special Statement

Elev 846 ft 39.15 °N, 86.62 °W | Updated 46 minutes ago

Clear
Clear
86 °F
Feels Like 96 °F
N
6
Wind Variable Wind from SSE

Today
High -- | Low -- °F
--% Chance of Precip.
Yesterday
High -- | Low -- °F
Precip. -- in
7:06 AM 8:30 PM
Waning Crescent, 3% visible
Pressure 29.95 in
Visibility 7.0 miles
Clouds Clear
Heat Index 96 °F
Dew Point 76 °F
Humidity 72%
Rainfall 0.00 in
Snow Depth Not available.
UV 7 out of 12
Pollen 10.10 out of 12
Air Quality Not available.
Flu Activity Not available.
SPECI KBMG 232007Z 15005KT 7SM VCTS CLR 30/24 A2995 RMK AO2 LTG DSNT S-NW TSE07 T03000244

More Conditions Fewer Conditions

Pressure 29.95 in
Visibility 7.0 miles
Clouds Clear
Heat Index 96 °F
Dew Point 76 °F
Humidity 72%
Rainfall 0.00 in
Snow Depth Not available.
UV 7 out of 12
Pollen 10.10 out of 12
Air Quality Not available.
Flu Activity Not available.
SPECI KBMG 232007Z 15005KT 7SM VCTS CLR 30/24 A2995 RMK AO2 LTG DSNT S-NW TSE07 T03000244

More Conditions Fewer Conditions

10-Day Weather Forecast

Almanac

Astronomy

Aug. 23, 2014 Rise Set
Actual Time 7:06 AM EDT 8:30 PM EDT
Civil Twilight 6:38 AM EDT 8:58 PM EDT
Nautical Twilight 6:05 AM EDT 9:31 PM EDT
Astronomical Twilight 5:29 AM EDT 10:07 PM EDT
Moon 5:22 AM EDT 7:14 PM EDT
Length of Visible Light 14h 19m
Length of Day
13h 23m
Tomorrow will be 2m 22s shorter.
Waning Crescent, 3% of the Moon is Illuminated
Today
Waning Crescent
Aug 25
New
Sep 2
First Quarter
Sep 8
Full
Sep 15
Last Quarter

Today's Extremes

State Highs State Lows

Community

WunderPhotos

Upload Photos

1,746,622 photos uploaded!

WunderBlogs® & News

By Dr. Jeff Masters
Director of Meteorology, Weather Underground
By Kari Strenfel
Meteorologist, Weather Underground
By Christopher C. Burt
Weather Historian, Weather Underground
August 23, 2014
August 23, 2014
August 23, 2014

Nearby

Snow Depth

Station Depth Elevation
No new snow has been reported.

Earthquake Activity

City Distance Mag. Time & Date
No recent earthquake activity has been reported nearby.
Minimum magnitude displayed is 2.5.

Coastal Water Temperatures

Place Temperature
No Stations Reporting

Nearby Weather Stations